createdAt,value
2019-01-10T00:01:42.713Z,36.40
2019-01-10T00:04:10.890Z,32.38
2019-01-10T00:06:44.377Z,34.58
2019-01-10T00:09:11.975Z,33.05
2019-01-10T00:11:40.759Z,32.20
2019-01-10T00:14:08.525Z,35.52
2019-01-10T00:16:37.786Z,34.88
2019-01-10T00:19:05.502Z,32.33
2019-01-10T00:21:34.253Z,35.43
2019-01-10T00:24:02.039Z,32.10
2019-01-10T00:26:33.686Z,36.45
2019-01-10T00:29:01.891Z,36.53
2019-01-10T00:31:32.121Z,38.45
2019-01-10T00:33:59.649Z,37.25
2019-01-10T00:36:32.136Z,41.18
2019-01-10T00:38:59.920Z,41.73
2019-01-10T00:41:27.788Z,45.25
2019-01-10T00:43:55.634Z,42.33
2019-01-10T00:46:23.266Z,40.43
2019-01-10T00:48:51.324Z,38.00
2019-01-10T00:51:18.883Z,34.65
2019-01-10T00:53:50.364Z,36.20
2019-01-10T00:56:17.922Z,32.80
2019-01-10T00:58:45.698Z,31.70
2019-01-10T01:01:13.206Z,32.67
2019-01-10T01:03:41.325Z,34.27
2019-01-10T01:06:09.049Z,31.33
2019-01-10T01:08:36.744Z,32.65
2019-01-10T01:11:05.605Z,32.35
2019-01-10T01:13:35.398Z,32.93
2019-01-10T01:16:05.775Z,32.13
2019-01-10T01:18:33.891Z,32.58
2019-01-10T01:21:01.515Z,32.67
2019-01-10T01:23:30.133Z,34.43
2019-01-10T01:25:58.011Z,32.30
2019-01-10T01:28:25.831Z,30.37
2019-01-10T01:30:53.335Z,30.92
2019-01-10T01:33:21.164Z,28.27
2019-01-10T01:35:49.901Z,28.60
2019-01-10T01:38:17.714Z,28.85
2019-01-10T01:40:48.559Z,30.30
2019-01-10T01:43:16.333Z,29.75
2019-01-10T01:45:45.044Z,28.25
2019-01-10T01:48:14.150Z,29.05
2019-01-10T01:50:44.075Z,30.85
2019-01-10T01:53:11.902Z,29.80
2019-01-10T01:55:39.392Z,27.93
2019-01-10T01:58:08.021Z,29.50
2019-01-10T02:00:37.253Z,30.23
2019-01-10T02:03:05.020Z,30.90
2019-01-10T02:05:32.580Z,29.50
2019-01-10T02:08:00.377Z,30.90
2019-01-10T02:10:28.601Z,29.92
2019-01-10T02:12:56.389Z,30.75
2019-01-10T02:15:23.992Z,32.90
2019-01-10T02:17:51.810Z,30.23
2019-01-10T02:20:19.644Z,29.72
2019-01-10T02:22:48.054Z,31.20
2019-01-10T02:25:16.293Z,30.32
2019-01-10T02:27:46.158Z,29.82
2019-01-10T02:30:20.198Z,30.27
2019-01-10T02:32:48.020Z,31.68
2019-01-10T02:35:16.743Z,31.27
2019-01-10T02:37:45.813Z,30.45
2019-01-10T02:40:13.647Z,32.03
2019-01-10T02:42:44.829Z,34.00
2019-01-10T02:45:13.640Z,40.43
2019-01-10T02:47:42.259Z,35.70
2019-01-10T02:50:16.937Z,37.40
2019-01-10T02:52:44.822Z,36.53
2019-01-10T02:55:12.532Z,37.30
2019-01-10T02:57:42.260Z,39.23
2019-01-10T03:00:14.139Z,38.95
2019-01-10T03:02:41.659Z,38.73
2019-01-10T03:05:09.947Z,38.53
2019-01-10T03:07:39.460Z,35.48
2019-01-10T03:10:09.833Z,38.50
2019-01-10T03:12:37.871Z,40.45
2019-01-10T03:15:06.149Z,36.83
2019-01-10T03:17:38.474Z,38.20
2019-01-10T03:20:08.684Z,37.70
2019-01-10T03:22:36.831Z,37.75
2019-01-10T03:25:05.030Z,37.67
2019-01-10T03:27:32.769Z,40.50
2019-01-10T03:30:00.584Z,40.58
2019-01-10T03:32:28.454Z,37.48
2019-01-10T03:34:56.318Z,38.17
2019-01-10T03:37:25.067Z,38.63
2019-01-10T03:39:52.859Z,38.60
2019-01-10T03:42:20.803Z,39.13
2019-01-10T03:44:48.537Z,38.45
2019-01-10T03:47:17.022Z,40.65
2019-01-10T03:49:44.728Z,39.80
2019-01-10T03:52:12.623Z,43.45
2019-01-10T03:54:40.635Z,41.88
2019-01-10T03:57:08.320Z,40.92
2019-01-10T03:59:36.243Z,40.40
2019-01-10T04:02:04.164Z,40.35
2019-01-10T04:04:33.297Z,38.53
2019-01-10T04:07:00.926Z,39.70
2019-01-10T04:09:29.685Z,43.00
2019-01-10T04:11:57.491Z,40.43
2019-01-10T04:14:26.282Z,39.88
2019-01-10T04:16:54.048Z,39.67
2019-01-10T04:19:23.721Z,40.10
2019-01-10T04:21:51.390Z,39.55
2019-01-10T04:24:24.831Z,44.23
2019-01-10T04:26:53.685Z,43.38
2019-01-10T04:29:21.782Z,43.40
2019-01-10T04:31:49.446Z,40.40
2019-01-10T04:34:17.504Z,41.25
2019-01-10T04:36:45.243Z,43.55
2019-01-10T04:39:14.119Z,40.12
2019-01-10T04:41:42.574Z,41.20
2019-01-10T04:44:10.540Z,43.75
2019-01-10T04:46:38.798Z,45.12
2019-01-10T04:49:07.378Z,45.17
2019-01-10T04:51:36.578Z,45.65
2019-01-10T04:54:04.567Z,44.45
2019-01-10T04:56:32.244Z,47.05
2019-01-10T04:59:00.116Z,46.35
2019-01-10T05:01:28.006Z,48.98
2019-01-10T05:03:56.237Z,48.20
2019-01-10T05:06:25.081Z,46.58
2019-01-10T05:08:52.865Z,44.65
2019-01-10T05:11:26.466Z,44.25
2019-01-10T05:13:54.421Z,43.73
2019-01-10T05:16:24.139Z,47.00
2019-01-10T05:18:52.147Z,56.83
2019-01-10T05:21:20.732Z,52.60
2019-01-10T05:23:51.086Z,50.63
2019-01-10T05:26:18.866Z,53.42
2019-01-10T05:28:46.950Z,53.75
2019-01-10T05:31:15.863Z,56.48
2019-01-10T05:33:43.749Z,61.15
2019-01-10T05:36:11.659Z,54.25
2019-01-10T05:38:39.539Z,57.17
2019-01-10T05:41:07.404Z,53.35
2019-01-10T05:43:38.984Z,52.70
2019-01-10T05:46:09.857Z,51.60
2019-01-10T05:48:37.538Z,46.20
2019-01-10T05:51:07.463Z,45.05
2019-01-10T05:53:35.407Z,45.28
2019-01-10T05:56:03.420Z,42.90
2019-01-10T05:58:31.388Z,43.63
2019-01-10T06:01:00.150Z,43.80
2019-01-10T06:03:27.907Z,41.88
2019-01-10T06:05:55.876Z,44.67
2019-01-10T06:08:27.080Z,46.28
2019-01-10T06:10:54.869Z,42.17
2019-01-10T06:13:22.906Z,44.75
2019-01-10T06:15:52.976Z,43.20
2019-01-10T06:18:21.096Z,44.05
2019-01-10T06:20:49.330Z,42.83
2019-01-10T06:23:18.034Z,45.12
2019-01-10T06:25:46.250Z,45.73
2019-01-10T06:28:14.407Z,46.10
2019-01-10T06:30:41.951Z,50.05
2019-01-10T06:33:11.831Z,49.77
2019-01-10T06:35:39.816Z,46.65
2019-01-10T06:38:07.469Z,46.40
2019-01-10T06:40:36.310Z,46.35
2019-01-10T06:43:04.210Z,46.80
2019-01-10T06:45:32.104Z,47.80
2019-01-10T06:47:59.802Z,47.85
2019-01-10T06:50:27.760Z,50.90
2019-01-10T06:52:55.611Z,46.08
2019-01-10T06:55:23.517Z,51.10
2019-01-10T06:57:52.502Z,53.28
2019-01-10T07:00:24.434Z,54.03
2019-01-10T07:02:53.736Z,47.60
2019-01-10T07:05:21.669Z,48.65
2019-01-10T07:07:56.341Z,46.73
2019-01-10T07:10:29.495Z,46.68
2019-01-10T07:12:57.595Z,46.13
2019-01-10T07:15:25.319Z,46.63
2019-01-10T07:17:53.155Z,48.98
2019-01-10T07:20:21.884Z,48.68
2019-01-10T07:22:52.302Z,51.58
2019-01-10T07:25:20.157Z,46.55
2019-01-10T07:27:49.843Z,48.65
2019-01-10T07:30:21.836Z,47.93
2019-01-10T07:32:49.877Z,49.88
2019-01-10T07:35:17.764Z,48.95
2019-01-10T07:37:52.473Z,51.65
2019-01-10T07:40:21.132Z,48.78
2019-01-10T07:42:49.844Z,52.62
2019-01-10T07:45:20.608Z,46.60
2019-01-10T07:47:50.298Z,45.60
2019-01-10T07:50:37.277Z,50.67
2019-01-10T07:53:06.601Z,51.92
2019-01-10T07:55:37.584Z,44.05
2019-01-10T07:58:05.186Z,44.85
2019-01-10T08:00:32.971Z,48.68
2019-01-10T08:03:01.901Z,46.42
2019-01-10T08:05:29.683Z,42.50
2019-01-10T08:07:57.228Z,42.65
2019-01-10T08:10:25.057Z,43.50
2019-01-10T08:12:53.254Z,41.55
2019-01-10T08:15:21.877Z,42.00
2019-01-10T08:17:50.650Z,47.35
2019-01-10T08:20:19.055Z,45.48
2019-01-10T08:22:46.801Z,42.40
2019-01-10T08:25:14.704Z,45.43
2019-01-10T08:27:42.559Z,42.83
2019-01-10T08:30:22.031Z,39.80
2019-01-10T08:32:49.761Z,41.23
2019-01-10T08:35:20.298Z,40.90
2019-01-10T08:37:47.843Z,41.65
2019-01-10T08:40:15.759Z,38.73
2019-01-10T08:42:44.546Z,41.13
2019-01-10T08:45:21.094Z,39.30
2019-01-10T08:47:45.575Z,36.55
2019-01-10T08:50:18.886Z,39.55
2019-01-10T08:52:47.939Z,41.60
2019-01-10T08:55:15.520Z,42.75
2019-01-10T08:57:43.110Z,47.53
2019-01-10T09:00:13.748Z,44.35
2019-01-10T09:02:43.366Z,51.88
2019-01-10T09:05:14.237Z,53.40
2019-01-10T09:07:41.958Z,48.45
2019-01-10T09:10:16.721Z,46.05
2019-01-10T09:12:44.751Z,45.17
2019-01-10T09:15:12.772Z,46.00
2019-01-10T09:17:44.202Z,44.90
2019-01-10T09:20:12.652Z,43.00
2019-01-10T09:22:43.931Z,45.00
2019-01-10T09:25:11.867Z,39.63
2019-01-10T09:27:39.808Z,35.65
2019-01-10T09:30:14.824Z,32.15
2019-01-10T09:32:42.431Z,37.80
2019-01-10T09:35:10.270Z,37.73
2019-01-10T09:37:42.293Z,39.25
2019-01-10T09:40:12.233Z,41.20
2019-01-10T09:42:39.954Z,42.10
2019-01-10T09:45:09.646Z,48.10
2019-01-10T09:47:37.437Z,48.45
2019-01-10T09:50:08.716Z,46.85
2019-01-10T09:52:37.679Z,44.95
2019-01-10T09:55:05.643Z,43.73
2019-01-10T09:57:34.555Z,40.90
2019-01-10T10:00:08.986Z,39.15
2019-01-10T10:02:39.611Z,43.30
2019-01-10T10:05:07.693Z,39.85
2019-01-10T10:07:36.671Z,38.60
2019-01-10T10:10:06.684Z,43.28
2019-01-10T10:12:35.379Z,40.60
2019-01-10T10:15:04.736Z,42.62
2019-01-10T10:17:32.937Z,39.90
2019-01-10T10:20:00.601Z,43.25
2019-01-10T10:22:28.294Z,44.25
2019-01-10T10:24:56.232Z,47.43
2019-01-10T10:27:23.991Z,50.90
2019-01-10T10:29:51.883Z,52.95
2019-01-10T10:32:20.632Z,57.83
2019-01-10T10:34:48.607Z,69.82
2019-01-10T10:37:16.605Z,73.60
2019-01-10T10:39:44.345Z,88.62
2019-01-10T10:42:12.070Z,85.97
2019-01-10T10:44:40.909Z,85.05
2019-01-10T10:47:09.034Z,82.02
2019-01-10T10:49:37.710Z,87.72
2019-01-10T10:52:05.858Z,87.57
2019-01-10T10:54:33.434Z,88.80
2019-01-10T10:57:01.306Z,88.58
2019-01-10T10:59:29.209Z,89.77
2019-01-10T11:01:57.094Z,87.60
2019-01-10T11:04:24.885Z,79.70
2019-01-10T11:06:53.697Z,82.92
2019-01-10T11:09:21.223Z,78.75
2019-01-10T11:11:50.330Z,70.20
2019-01-10T11:14:21.438Z,67.62
2019-01-10T11:16:49.322Z,65.55
2019-01-10T11:19:17.014Z,70.95
2019-01-10T11:21:46.133Z,64.25
2019-01-10T11:24:13.953Z,67.03
2019-01-10T11:26:43.873Z,64.42
2019-01-10T11:29:14.392Z,64.72
2019-01-10T11:31:42.030Z,64.72
2019-01-10T11:34:10.110Z,61.35
2019-01-10T11:36:37.863Z,64.75
2019-01-10T11:39:07.793Z,63.92
2019-01-10T11:41:35.550Z,59.95
2019-01-10T11:44:03.570Z,63.55
2019-01-10T11:46:32.997Z,58.23
2019-01-10T11:49:01.180Z,59.85
2019-01-10T11:51:29.145Z,62.60
2019-01-10T11:53:59.661Z,63.35
2019-01-10T11:56:27.219Z,59.65
2019-01-10T11:58:55.206Z,60.85
2019-01-10T12:01:23.062Z,61.85
2019-01-10T12:03:51.294Z,64.77
2019-01-10T12:06:18.884Z,65.42
2019-01-10T12:08:46.420Z,65.87
2019-01-10T12:11:14.249Z,63.65
2019-01-10T12:13:42.475Z,58.65
2019-01-10T12:16:10.238Z,56.80
2019-01-10T12:18:39.013Z,51.77
2019-01-10T12:21:06.850Z,47.60
2019-01-10T12:23:40.188Z,53.23
2019-01-10T12:26:07.787Z,52.08
2019-01-10T12:28:36.398Z,53.75
2019-01-10T12:31:03.982Z,53.92
2019-01-10T12:33:31.526Z,55.67
2019-01-10T12:35:59.735Z,55.70
2019-01-10T12:38:27.737Z,50.45
2019-01-10T12:40:55.402Z,48.92
2019-01-10T12:43:23.879Z,50.92
2019-01-10T12:45:52.819Z,48.70
2019-01-10T12:48:21.101Z,47.75
2019-01-10T12:50:54.550Z,43.28
2019-01-10T12:53:22.196Z,42.40
2019-01-10T12:55:52.107Z,44.45
2019-01-10T12:58:20.349Z,42.45
2019-01-10T13:00:53.965Z,43.70
2019-01-10T13:03:22.033Z,44.45
2019-01-10T13:05:49.652Z,41.20
2019-01-10T13:08:17.574Z,46.00
2019-01-10T13:10:45.432Z,43.23
2019-01-10T13:13:15.354Z,44.15
2019-01-10T13:15:43.258Z,43.05
2019-01-10T13:18:11.959Z,44.18
2019-01-10T13:20:39.561Z,44.27
2019-01-10T13:23:07.620Z,41.30
2019-01-10T13:25:35.551Z,41.50
2019-01-10T13:28:03.348Z,42.38
2019-01-10T13:30:35.047Z,43.05
2019-01-10T13:33:02.866Z,41.55
2019-01-10T13:35:30.686Z,39.98
2019-01-10T13:37:58.534Z,38.60
2019-01-10T13:40:26.568Z,40.90
2019-01-10T13:42:55.520Z,37.93
2019-01-10T13:45:23.531Z,33.48
2019-01-10T13:47:52.092Z,33.33
2019-01-10T13:50:25.582Z,33.75
2019-01-10T13:52:54.873Z,36.83
2019-01-10T13:55:28.205Z,34.25
2019-01-10T13:57:56.003Z,33.05
2019-01-10T14:00:25.810Z,40.38
2019-01-10T14:02:53.766Z,41.60
2019-01-10T14:05:21.693Z,38.45
2019-01-10T14:07:49.863Z,39.88
2019-01-10T14:10:17.610Z,41.18
2019-01-10T14:12:48.045Z,38.23
2019-01-10T14:15:19.673Z,39.35
2019-01-10T14:17:49.933Z,37.60
2019-01-10T14:20:17.935Z,40.55
2019-01-10T14:22:46.183Z,39.33
2019-01-10T14:25:14.651Z,42.80
2019-01-10T14:27:42.452Z,50.63
2019-01-10T14:30:18.306Z,46.73
2019-01-10T14:32:46.106Z,43.20
2019-01-10T14:35:15.165Z,43.87
2019-01-10T14:37:43.610Z,42.15
2019-01-10T14:40:15.170Z,43.25
2019-01-10T14:42:42.928Z,42.45
2019-01-10T14:45:14.261Z,43.35
2019-01-10T14:47:42.284Z,47.62
2019-01-10T14:50:11.751Z,46.20
2019-01-10T14:52:39.861Z,46.88
2019-01-10T14:55:09.624Z,46.08
2019-01-10T14:57:37.376Z,45.70
2019-01-10T15:00:10.183Z,47.10
2019-01-10T15:02:37.943Z,48.10
2019-01-10T15:05:08.432Z,46.92
2019-01-10T15:07:37.361Z,46.68
2019-01-10T15:10:05.772Z,44.95
2019-01-10T15:12:33.589Z,48.83
2019-01-10T15:15:07.806Z,46.83
2019-01-10T15:17:36.686Z,47.20
2019-01-10T15:20:11.099Z,45.88
2019-01-10T15:22:38.936Z,46.75
2019-01-10T15:25:07.779Z,47.35
2019-01-10T15:27:35.417Z,49.35
2019-01-10T15:30:06.634Z,49.45
2019-01-10T15:32:34.490Z,57.17
2019-01-10T15:35:04.008Z,68.33
2019-01-10T15:37:31.843Z,75.42
2019-01-10T15:40:02.214Z,71.57
2019-01-10T15:42:30.020Z,83.15
2019-01-10T15:44:57.955Z,83.82
2019-01-10T15:47:25.750Z,93.37
2019-01-10T15:49:53.311Z,88.07
2019-01-10T15:52:21.048Z,80.90
2019-01-10T15:54:51.754Z,82.37
2019-01-10T15:57:19.671Z,75.72
2019-01-10T15:59:47.240Z,69.65
2019-01-10T16:02:14.809Z,69.58
2019-01-10T16:04:42.436Z,65.05
2019-01-10T16:07:12.460Z,62.35
2019-01-10T16:09:40.317Z,54.27
2019-01-10T16:12:08.170Z,52.17
2019-01-10T16:14:36.066Z,51.45
2019-01-10T16:17:05.033Z,50.10
2019-01-10T16:19:32.912Z,50.52
2019-01-10T16:22:00.844Z,49.60
2019-01-10T16:24:28.603Z,54.38
2019-01-10T16:26:56.567Z,53.87
2019-01-10T16:29:24.764Z,50.73
2019-01-10T16:31:53.686Z,51.83
2019-01-10T16:34:21.290Z,55.75
2019-01-10T16:36:54.252Z,47.95
2019-01-10T16:39:26.076Z,42.78
2019-01-10T16:41:54.810Z,47.00
2019-01-10T16:44:22.633Z,49.70
2019-01-10T16:46:50.635Z,43.75
2019-01-10T16:49:18.769Z,42.43
2019-01-10T16:51:46.956Z,41.13
2019-01-10T16:54:14.576Z,39.58
2019-01-10T16:56:43.294Z,40.83
2019-01-10T16:59:11.073Z,33.25
2019-01-10T17:02:20.563Z,37.25
2019-01-10T17:05:23.315Z,36.88
2019-01-10T17:08:01.366Z,38.17
2019-01-10T17:10:30.717Z,33.25
2019-01-10T17:12:58.660Z,32.90
2019-01-10T17:15:26.345Z,35.00
2019-01-10T17:17:54.322Z,56.20
2019-01-10T17:20:23.390Z,37.85
2019-01-10T17:22:51.185Z,37.55
2019-01-10T17:25:19.089Z,39.25
2019-01-10T17:27:48.097Z,40.70
2019-01-10T17:30:29.568Z,35.75
2019-01-10T17:32:57.627Z,36.13
2019-01-10T17:35:28.217Z,32.05
2019-01-10T17:38:06.189Z,35.80
2019-01-10T17:40:36.931Z,35.90
2019-01-10T17:43:06.123Z,34.50
2019-01-10T17:45:35.461Z,30.95
2019-01-10T17:48:04.801Z,39.58
2019-01-10T17:50:32.530Z,38.13
2019-01-10T17:53:00.572Z,40.48
2019-01-10T17:55:28.263Z,38.80
2019-01-10T17:57:55.864Z,38.17
2019-01-10T18:00:27.891Z,36.00
2019-01-10T18:02:56.879Z,37.58
2019-01-10T18:05:24.927Z,35.33
2019-01-10T18:07:54.571Z,35.55
2019-01-10T18:11:28.180Z,41.37
2019-01-10T18:14:44.083Z,40.78
2019-01-10T18:17:16.077Z,34.73
2019-01-10T18:20:59.317Z,34.73
2019-01-10T18:23:30.172Z,32.60
2019-01-10T18:27:05.274Z,29.60
2019-01-10T18:29:39.072Z,33.08
2019-01-10T18:33:15.072Z,31.68
2019-01-10T18:36:17.266Z,25.02
2019-01-10T18:39:39.050Z,30.50
2019-01-10T18:42:10.308Z,31.87
2019-01-10T18:45:39.550Z,32.05
2019-01-10T18:49:08.817Z,29.15
2019-01-10T18:52:39.759Z,28.65
2019-01-10T18:55:54.647Z,28.20
2019-01-10T18:58:56.075Z,29.65
2019-01-10T19:02:28.671Z,30.30
2019-01-10T19:05:44.395Z,32.13
2019-01-10T19:09:12.089Z,33.40
2019-01-10T19:11:42.939Z,31.60
2019-01-10T19:14:10.717Z,29.42
2019-01-10T19:16:38.492Z,30.23
2019-01-10T19:19:06.287Z,32.20
2019-01-10T19:21:33.974Z,30.48
2019-01-10T19:24:01.789Z,29.63
2019-01-10T19:26:29.484Z,31.87
2019-01-10T19:28:58.677Z,32.73
2019-01-10T19:31:26.462Z,33.05
2019-01-10T19:33:54.651Z,31.90
2019-01-10T19:36:22.530Z,30.68
2019-01-10T19:38:54.219Z,31.00
2019-01-10T19:41:22.071Z,30.92
2019-01-10T19:43:49.995Z,35.10
2019-01-10T19:46:17.799Z,30.30
2019-01-10T19:48:46.083Z,26.15
2019-01-10T19:51:13.896Z,30.27
2019-01-10T19:53:41.778Z,26.93
2019-01-10T19:56:09.338Z,25.30
2019-01-10T19:58:37.551Z,25.15
2019-01-10T20:01:06.313Z,25.05
2019-01-10T20:03:39.304Z,25.08
2019-01-10T20:06:07.401Z,28.25
2019-01-10T20:08:36.961Z,27.10
2019-01-10T20:11:05.063Z,25.20
2019-01-10T20:13:32.870Z,26.37
2019-01-10T20:16:01.109Z,22.45
2019-01-10T20:18:30.320Z,22.55
2019-01-10T20:20:58.126Z,22.22
2019-01-10T20:23:28.675Z,20.90
2019-01-10T20:25:56.442Z,19.07
2019-01-10T20:28:24.295Z,20.17
2019-01-10T20:30:52.590Z,17.55
2019-01-10T20:33:20.183Z,17.40
2019-01-10T20:35:48.208Z,14.68
2019-01-10T20:38:16.073Z,15.25
2019-01-10T20:40:45.072Z,14.18
2019-01-10T20:43:13.083Z,12.43
2019-01-10T20:45:40.966Z,13.40
2019-01-10T20:48:09.028Z,12.93
2019-01-10T20:50:37.763Z,12.68
2019-01-10T20:53:05.925Z,13.13
2019-01-10T20:55:33.709Z,14.05
2019-01-10T20:58:01.509Z,14.50
2019-01-10T21:00:29.991Z,14.83
2019-01-10T21:02:57.727Z,14.33
2019-01-10T21:05:26.563Z,14.98
2019-01-10T21:07:55.486Z,15.93
2019-01-10T21:10:23.486Z,16.30
2019-01-10T21:12:51.569Z,15.68
2019-01-10T21:15:26.186Z,17.75
2019-01-10T21:17:55.516Z,17.67
2019-01-10T21:20:23.176Z,17.37
2019-01-10T21:22:51.653Z,17.70
2019-01-10T21:25:19.968Z,18.67
2019-01-10T21:27:48.681Z,19.30
2019-01-10T21:30:17.720Z,21.90
2019-01-10T21:32:47.228Z,22.45
2019-01-10T21:35:15.695Z,18.70
2019-01-10T21:37:43.311Z,17.27
2019-01-10T21:40:13.034Z,18.85
2019-01-10T21:42:42.867Z,17.70
2019-01-10T21:45:12.794Z,18.17
2019-01-10T21:47:40.632Z,18.85
2019-01-10T21:50:12.195Z,18.05
2019-01-10T21:52:45.930Z,19.17
2019-01-10T21:55:14.603Z,19.32
2019-01-10T21:57:42.377Z,19.10
2019-01-10T22:00:14.209Z,22.58
2019-01-10T22:02:42.865Z,21.40
2019-01-10T22:05:10.652Z,20.37
2019-01-10T22:07:38.693Z,22.55
2019-01-10T22:10:07.848Z,22.60
2019-01-10T22:12:35.866Z,23.15
2019-01-10T22:15:05.500Z,23.02
2019-01-10T22:17:33.392Z,22.85
2019-01-10T22:20:01.198Z,24.80
2019-01-10T22:22:29.024Z,24.63
2019-01-10T22:24:58.972Z,23.52
2019-01-10T22:27:26.918Z,21.75
2019-01-10T22:29:54.643Z,21.95
2019-01-10T22:32:22.599Z,21.33
2019-01-10T22:34:52.289Z,20.40
2019-01-10T22:37:19.978Z,19.87
2019-01-10T22:39:47.704Z,20.92
2019-01-10T22:42:15.654Z,20.75
2019-01-10T22:44:43.577Z,20.45
2019-01-10T22:47:11.477Z,20.32
2019-01-10T22:49:39.291Z,21.17
2019-01-10T22:52:07.185Z,20.85
2019-01-10T22:54:35.320Z,19.45
2019-01-10T22:57:03.327Z,22.60
2019-01-10T22:59:30.838Z,22.42
2019-01-10T23:01:59.290Z,22.95
2019-01-10T23:04:36.907Z,22.42
2019-01-10T23:07:19.968Z,22.75
2019-01-10T23:09:47.979Z,23.92
2019-01-10T23:12:15.729Z,24.23
2019-01-10T23:14:52.694Z,22.75
2019-01-10T23:17:20.822Z,23.65
2019-01-10T23:19:50.538Z,23.42
2019-01-10T23:22:19.013Z,24.00
2019-01-10T23:24:55.738Z,23.65
2019-01-10T23:27:23.593Z,24.20
2019-01-10T23:29:53.300Z,22.13
2019-01-10T23:32:21.106Z,24.07
2019-01-10T23:34:50.292Z,22.62
2019-01-10T23:37:25.172Z,19.23
2019-01-10T23:39:54.689Z,18.65
2019-01-10T23:42:22.397Z,17.90
2019-01-10T23:44:51.350Z,16.65
2019-01-10T23:47:19.180Z,16.37
2019-01-10T23:49:47.101Z,15.53
2019-01-10T23:52:14.940Z,13.68
2019-01-10T23:54:42.924Z,13.78
2019-01-10T23:57:11.824Z,13.40
2019-01-10T23:59:39.773Z,13.05
